createdAt,value
2017-09-05T00:00:30.310Z,6.23
2017-09-05T00:02:57.839Z,5.97
2017-09-05T00:05:25.364Z,5.70
2017-09-05T00:08:10.625Z,5.33
2017-09-05T00:10:41.876Z,6.77
2017-09-05T00:13:09.399Z,5.73
2017-09-05T00:15:51.830Z,5.77
2017-09-05T00:18:25.384Z,6.80
2017-09-05T00:23:54.987Z,7.03
2017-09-05T00:26:22.539Z,6.90
2017-09-05T00:28:50.066Z,6.73
2017-09-05T00:31:17.618Z,7.30
2017-09-05T00:33:45.139Z,6.97
2017-09-05T00:36:12.662Z,7.47
2017-09-05T00:38:40.211Z,7.53
2017-09-05T00:41:07.749Z,6.80
2017-09-05T00:43:35.302Z,7.00
2017-09-05T00:46:02.827Z,6.60
2017-09-05T00:48:30.383Z,7.20
2017-09-05T00:50:57.913Z,7.00
2017-09-05T00:53:25.465Z,7.50
2017-09-05T00:55:53.000Z,7.37
2017-09-05T00:58:20.558Z,6.87
2017-09-05T01:00:48.090Z,7.00
2017-09-05T01:03:15.642Z,8.07
2017-09-05T01:05:43.175Z,7.80
2017-09-05T01:08:10.727Z,8.00
2017-09-05T01:10:38.260Z,8.80
2017-09-05T01:13:05.815Z,8.17
2017-09-05T01:15:33.343Z,8.07
2017-09-05T01:18:00.899Z,8.50
2017-09-05T01:20:28.430Z,8.43
2017-09-05T01:22:55.986Z,7.90
2017-09-05T01:25:23.521Z,8.50
2017-09-05T01:27:51.050Z,8.30
2017-09-05T01:30:18.598Z,8.80
2017-09-05T01:32:46.127Z,8.43
2017-09-05T01:35:13.685Z,8.60
2017-09-05T01:37:41.227Z,7.27
2017-09-05T01:40:09.595Z,7.30
2017-09-05T01:42:37.132Z,6.63
2017-09-05T01:45:04.686Z,6.93
2017-09-05T01:47:32.211Z,7.30
2017-09-05T01:49:59.766Z,7.30
2017-09-05T01:52:27.293Z,8.17
2017-09-05T01:54:54.848Z,7.60
2017-09-05T01:57:22.377Z,7.87
2017-09-05T01:59:49.932Z,7.90
2017-09-05T02:02:17.458Z,7.10
2017-09-05T02:04:45.007Z,6.57
2017-09-05T02:07:12.542Z,7.30
2017-09-05T02:09:40.106Z,7.80
2017-09-05T02:12:07.621Z,7.70
2017-09-05T02:14:35.175Z,8.20
2017-09-05T02:17:02.702Z,7.20
2017-09-05T02:19:30.246Z,7.73
2017-09-05T02:21:57.783Z,7.27
2017-09-05T02:24:25.314Z,7.90
2017-09-05T02:26:52.867Z,7.90
2017-09-05T02:29:20.423Z,7.73
2017-09-05T02:31:47.980Z,8.57
2017-09-05T02:34:15.507Z,7.80
2017-09-05T02:36:43.062Z,7.60
2017-09-05T02:39:10.595Z,7.27
2017-09-05T02:41:38.153Z,7.97
2017-09-05T02:44:05.692Z,7.43
2017-09-05T02:46:33.239Z,7.80
2017-09-05T02:49:00.788Z,7.63
2017-09-05T02:51:28.343Z,7.63
2017-09-05T02:53:55.866Z,7.50
2017-09-05T02:56:23.417Z,6.90
2017-09-05T02:58:50.967Z,7.63
2017-09-05T03:01:18.518Z,8.07
2017-09-05T03:03:46.055Z,8.00
2017-09-05T03:06:13.618Z,8.63
2017-09-05T03:08:41.147Z,8.57
2017-09-05T03:11:08.694Z,7.93
2017-09-05T03:13:36.221Z,8.10
2017-09-05T03:16:03.779Z,8.43
2017-09-05T03:18:31.342Z,9.13
2017-09-05T03:20:58.867Z,8.57
2017-09-05T03:23:26.414Z,8.70
2017-09-05T03:25:53.959Z,8.03
2017-09-05T03:28:21.515Z,9.37
2017-09-05T03:30:49.040Z,8.43
2017-09-05T03:33:16.591Z,8.53
2017-09-05T03:35:44.123Z,8.20
2017-09-05T03:38:11.671Z,8.33
2017-09-05T03:40:39.202Z,8.97
2017-09-05T03:43:06.759Z,7.47
2017-09-05T03:45:34.298Z,8.70
2017-09-05T03:48:01.859Z,9.30
2017-09-05T03:50:29.390Z,8.50
2017-09-05T03:52:56.940Z,9.23
2017-09-05T03:55:24.492Z,10.57
2017-09-05T03:57:52.064Z,10.17
2017-09-05T04:00:19.598Z,10.10
2017-09-05T04:02:47.164Z,10.90
2017-09-05T04:05:14.715Z,9.47
2017-09-05T04:07:42.280Z,9.90
2017-09-05T04:10:09.813Z,10.13
2017-09-05T04:12:37.382Z,9.90
2017-09-05T04:15:04.913Z,9.70
2017-09-05T04:17:32.450Z,10.27
2017-09-05T04:20:00.008Z,10.97
2017-09-05T04:22:27.555Z,10.13
2017-09-05T04:24:55.122Z,10.77
2017-09-05T04:27:22.663Z,11.50
2017-09-05T04:29:50.303Z,11.53
2017-09-05T04:32:17.851Z,10.60
2017-09-05T04:34:45.404Z,11.50
2017-09-05T04:37:13.239Z,9.90
2017-09-05T04:39:40.787Z,9.00
2017-09-05T04:42:09.114Z,10.90
2017-09-05T04:44:36.678Z,10.07
2017-09-05T04:47:05.586Z,10.57
2017-09-05T04:49:34.010Z,10.43
2017-09-05T04:52:01.578Z,10.07
2017-09-05T04:54:29.127Z,9.83
2017-09-05T04:56:56.663Z,10.13
2017-09-05T04:59:24.219Z,10.50
2017-09-05T05:01:51.750Z,10.80
2017-09-05T05:04:19.302Z,10.87
2017-09-05T05:06:46.834Z,12.20
2017-09-05T05:09:14.398Z,11.60
2017-09-05T05:11:41.954Z,10.93
2017-09-05T05:14:09.483Z,11.77
2017-09-05T05:16:37.042Z,10.63
2017-09-05T05:19:04.567Z,9.90
2017-09-05T05:21:32.110Z,8.87
2017-09-05T05:23:59.630Z,9.07
2017-09-05T05:26:27.177Z,8.07
2017-09-05T05:28:54.711Z,8.10
2017-09-05T05:31:22.259Z,7.80
2017-09-05T05:33:49.782Z,9.03
2017-09-05T05:36:17.338Z,8.57
2017-09-05T05:38:44.862Z,8.20
2017-09-05T05:41:12.416Z,9.50
2017-09-05T05:43:39.954Z,8.10
2017-09-05T05:46:07.531Z,9.07
2017-09-05T05:48:35.055Z,8.20
2017-09-05T05:51:02.606Z,9.53
2017-09-05T05:53:30.135Z,9.13
2017-09-05T05:55:57.678Z,9.80
2017-09-05T05:58:25.202Z,10.73
2017-09-05T06:00:52.758Z,11.00
2017-09-05T06:03:20.288Z,10.60
2017-09-05T06:05:47.863Z,10.47
2017-09-05T06:08:15.395Z,11.70
2017-09-05T06:10:42.927Z,11.30
2017-09-05T06:13:10.476Z,10.87
2017-09-05T06:15:38.010Z,10.80
2017-09-05T06:18:05.563Z,9.57
2017-09-05T06:20:33.094Z,8.90
2017-09-05T06:23:00.654Z,8.70
2017-09-05T06:25:28.198Z,10.37
2017-09-05T06:27:55.756Z,9.03
2017-09-05T06:30:23.288Z,10.13
2017-09-05T06:32:50.846Z,11.07
2017-09-05T06:35:18.385Z,10.93
2017-09-05T06:37:45.946Z,9.40
2017-09-05T06:40:13.474Z,10.37
2017-09-05T06:42:41.026Z,9.93
2017-09-05T06:45:08.558Z,10.70
2017-09-05T06:47:36.113Z,10.77
2017-09-05T06:50:03.642Z,8.70
2017-09-05T06:52:31.190Z,9.77
2017-09-05T06:54:58.721Z,10.40
2017-09-05T06:57:26.270Z,9.43
2017-09-05T06:59:53.818Z,10.70
2017-09-05T07:02:21.343Z,9.70
2017-09-05T07:04:48.919Z,10.30
2017-09-05T07:07:16.447Z,11.30
2017-09-05T07:09:44.275Z,10.97
2017-09-05T07:12:11.806Z,12.67
2017-09-05T07:14:39.363Z,11.83
2017-09-05T07:17:06.890Z,10.13
2017-09-05T07:19:34.442Z,10.60
2017-09-05T07:22:01.979Z,10.20
2017-09-05T07:24:29.525Z,9.93
2017-09-05T07:26:57.051Z,9.40
2017-09-05T07:29:24.594Z,9.00
2017-09-05T07:31:52.138Z,9.30
2017-09-05T07:34:19.695Z,10.50
2017-09-05T07:36:47.222Z,9.63
2017-09-05T07:39:14.828Z,14.60
2017-09-05T07:41:42.366Z,15.90
2017-09-05T07:44:09.924Z,14.77
2017-09-05T07:46:37.454Z,12.00
2017-09-05T07:49:05.013Z,11.77
2017-09-05T07:51:32.541Z,12.13
2017-09-05T07:54:00.100Z,13.47
2017-09-05T07:56:27.627Z,15.53
2017-09-05T07:58:55.162Z,12.00
2017-09-05T08:01:22.711Z,12.70
2017-09-05T08:03:50.234Z,12.57
2017-09-05T08:06:17.799Z,12.47
2017-09-05T08:08:45.339Z,14.43
2017-09-05T08:11:12.890Z,13.70
2017-09-05T08:13:40.423Z,11.60
2017-09-05T08:16:07.974Z,9.40
2017-09-05T08:18:35.503Z,9.77
2017-09-05T08:21:03.063Z,9.10
2017-09-05T08:23:30.588Z,9.07
2017-09-05T08:25:58.143Z,9.23
2017-09-05T08:28:25.670Z,9.80
2017-09-05T08:30:53.224Z,9.03
2017-09-05T08:33:20.746Z,8.03
2017-09-05T08:35:48.302Z,8.03
2017-09-05T08:38:15.839Z,8.70
2017-09-05T08:40:43.395Z,8.13
2017-09-05T08:43:10.923Z,7.90
2017-09-05T08:45:38.470Z,8.80
2017-09-05T08:48:05.997Z,8.00
2017-09-05T08:50:33.552Z,7.70
2017-09-05T08:53:01.086Z,7.73
2017-09-05T08:55:28.623Z,8.27
2017-09-05T08:57:56.172Z,7.53
2017-09-05T09:00:23.738Z,6.73
2017-09-05T09:02:51.288Z,7.80
2017-09-05T09:05:18.838Z,7.60
2017-09-05T09:07:46.396Z,7.40
2017-09-05T09:10:13.920Z,7.67
2017-09-05T09:12:41.644Z,7.17
2017-09-05T09:15:09.180Z,7.53
2017-09-05T09:17:36.747Z,7.00
2017-09-05T09:20:04.527Z,6.70
2017-09-05T09:22:32.150Z,6.63
2017-09-05T09:24:59.695Z,6.70
2017-09-05T09:27:27.243Z,7.20
2017-09-05T09:29:54.772Z,6.17
2017-09-05T09:32:22.324Z,7.00
2017-09-05T09:34:49.852Z,6.93
2017-09-05T09:37:17.407Z,6.77
2017-09-05T09:39:44.937Z,8.20
2017-09-05T09:42:12.490Z,10.20
2017-09-05T09:44:40.022Z,9.97
2017-09-05T09:47:07.589Z,8.97
2017-09-05T09:49:35.111Z,8.23
2017-09-05T09:52:02.642Z,6.73
2017-09-05T09:54:30.193Z,7.67
2017-09-05T09:56:57.718Z,9.97
2017-09-05T09:59:25.267Z,8.50
2017-09-05T10:01:52.790Z,6.83
2017-09-05T10:04:20.346Z,6.20
2017-09-05T10:06:47.874Z,5.70
2017-09-05T10:09:15.422Z,5.40
2017-09-05T10:11:42.957Z,5.10
2017-09-05T10:14:10.503Z,4.70
2017-09-05T10:16:38.030Z,5.50
2017-09-05T10:19:05.591Z,5.80
2017-09-05T10:21:36.321Z,5.00
2017-09-05T10:24:03.888Z,8.03
2017-09-05T10:26:31.418Z,6.80
2017-09-05T10:28:58.965Z,5.10
2017-09-05T10:31:26.487Z,5.57
2017-09-05T10:33:54.034Z,4.67
2017-09-05T10:36:21.555Z,4.43
2017-09-05T10:38:49.105Z,4.37
2017-09-05T10:41:16.630Z,4.70
2017-09-05T10:43:44.174Z,4.17
2017-09-05T10:46:11.704Z,5.97
2017-09-05T10:48:39.247Z,6.10
2017-09-05T10:51:06.795Z,4.77
2017-09-05T10:53:34.310Z,5.13
2017-09-05T10:56:01.859Z,6.23
2017-09-05T10:58:29.398Z,3.90
2017-09-05T11:00:56.943Z,3.90
2017-09-05T11:03:24.459Z,4.17
2017-09-05T11:05:52.010Z,3.90
2017-09-05T11:08:19.538Z,3.67
2017-09-05T11:10:47.082Z,4.03
2017-09-05T11:13:14.599Z,4.07
2017-09-05T11:15:42.146Z,3.67
2017-09-05T11:18:09.673Z,3.97
2017-09-05T11:20:37.218Z,3.43
2017-09-05T11:23:04.742Z,3.00
2017-09-05T11:25:32.290Z,3.40
2017-09-05T11:27:59.818Z,3.83
2017-09-05T11:30:27.365Z,3.30
2017-09-05T11:32:54.894Z,3.83
2017-09-05T11:35:22.438Z,3.27
2017-09-05T11:37:49.958Z,3.77
2017-09-05T11:40:17.519Z,3.90
2017-09-05T11:42:45.041Z,3.67
2017-09-05T11:45:12.570Z,3.63
2017-09-05T11:47:40.125Z,3.67
2017-09-05T11:50:07.646Z,3.23
2017-09-05T11:52:35.193Z,3.60
2017-09-05T11:55:02.719Z,3.20
2017-09-05T11:57:30.262Z,3.27
2017-09-05T11:59:57.794Z,3.70
2017-09-05T12:02:25.343Z,3.43
2017-09-05T12:04:52.866Z,3.00
2017-09-05T12:07:20.415Z,2.93
2017-09-05T12:09:47.938Z,3.77
2017-09-05T12:12:15.490Z,4.10
2017-09-05T12:14:43.006Z,3.03
2017-09-05T12:17:10.555Z,3.40
2017-09-05T12:19:38.069Z,3.40
2017-09-05T12:22:05.610Z,3.03
2017-09-05T12:24:33.137Z,3.33
2017-09-05T12:27:00.678Z,3.73
2017-09-05T12:29:28.208Z,3.00
2017-09-05T12:31:55.759Z,3.07
2017-09-05T12:34:23.278Z,2.80
2017-09-05T12:36:50.865Z,2.97
2017-09-05T12:39:18.382Z,3.50
2017-09-05T12:41:45.901Z,3.50
2017-09-05T12:44:13.454Z,3.00
2017-09-05T12:46:40.974Z,3.30
2017-09-05T12:49:08.532Z,2.70
2017-09-05T12:51:36.058Z,3.70
2017-09-05T12:54:03.607Z,3.17
2017-09-05T12:56:31.138Z,2.97
2017-09-05T12:58:58.686Z,3.20
2017-09-05T13:01:26.210Z,3.97
2017-09-05T13:03:53.746Z,4.27
2017-09-05T13:06:21.271Z,5.20
2017-09-05T13:08:48.822Z,8.80
2017-09-05T13:11:16.343Z,8.70
2017-09-05T13:13:43.887Z,5.20
2017-09-05T13:16:11.406Z,4.40
2017-09-05T13:18:38.952Z,3.07
2017-09-05T13:21:06.470Z,2.83
2017-09-05T13:23:34.015Z,2.73
2017-09-05T13:26:01.533Z,3.00
2017-09-05T13:28:29.083Z,3.10
2017-09-05T13:30:56.606Z,2.70
2017-09-05T13:33:24.166Z,2.67
2017-09-05T13:35:51.694Z,3.13
2017-09-05T13:38:19.209Z,2.90
2017-09-05T13:40:46.753Z,3.30
2017-09-05T13:43:14.284Z,3.50
2017-09-05T13:45:41.828Z,3.00
2017-09-05T13:48:09.346Z,2.70
2017-09-05T13:50:36.896Z,3.30
2017-09-05T13:53:04.430Z,3.53
2017-09-05T13:55:31.982Z,3.00
2017-09-05T13:57:59.503Z,3.00
2017-09-05T14:00:27.046Z,2.90
2017-09-05T14:02:54.566Z,2.80
2017-09-05T14:05:22.120Z,3.53
2017-09-05T14:07:49.647Z,3.27
2017-09-05T14:10:17.198Z,3.03
2017-09-05T14:12:44.724Z,2.57
2017-09-05T14:15:12.275Z,3.27
2017-09-05T14:17:39.795Z,3.00
2017-09-05T14:20:07.343Z,3.13
2017-09-05T14:22:34.876Z,3.20
2017-09-05T14:25:02.424Z,3.10
2017-09-05T14:27:29.954Z,3.43
2017-09-05T14:29:57.513Z,2.77
2017-09-05T14:32:25.038Z,2.43
2017-09-05T14:34:52.558Z,2.50
2017-09-05T14:37:20.108Z,2.80
2017-09-05T14:39:47.654Z,2.57
2017-09-05T14:42:15.215Z,2.13
2017-09-05T14:44:42.746Z,2.40
2017-09-05T14:47:10.299Z,2.63
2017-09-05T14:49:37.827Z,2.10
2017-09-05T14:52:05.379Z,2.27
2017-09-05T14:54:32.904Z,2.30
2017-09-05T14:57:00.450Z,2.57
2017-09-05T14:59:27.976Z,1.90
2017-09-05T15:01:55.531Z,2.20
2017-09-05T15:04:23.054Z,2.47
2017-09-05T15:06:50.602Z,2.00
2017-09-05T15:09:18.123Z,2.10
2017-09-05T15:11:45.679Z,2.10
2017-09-05T15:14:13.199Z,2.10
2017-09-05T15:16:40.751Z,2.03
2017-09-05T15:19:08.283Z,1.70
2017-09-05T15:21:35.831Z,2.60
2017-09-05T15:24:03.355Z,1.83
2017-09-05T15:26:30.916Z,2.10
2017-09-05T15:28:58.438Z,2.33
2017-09-05T15:31:25.967Z,2.77
2017-09-05T15:33:53.522Z,2.20
2017-09-05T15:36:21.051Z,2.30
2017-09-05T15:38:48.602Z,2.47
2017-09-05T15:41:16.127Z,2.30
2017-09-05T15:43:43.674Z,2.30
2017-09-05T15:46:11.198Z,2.40
2017-09-05T15:48:38.742Z,2.10
2017-09-05T15:51:06.366Z,2.20
2017-09-05T15:53:33.920Z,2.93
2017-09-05T15:56:01.450Z,2.30
2017-09-05T15:58:29.010Z,2.20
2017-09-05T16:00:56.534Z,2.40
2017-09-05T16:03:24.087Z,2.30
2017-09-05T16:05:51.615Z,2.77
2017-09-05T16:08:19.177Z,2.43
2017-09-05T16:10:46.704Z,2.30
2017-09-05T16:13:14.251Z,2.30
2017-09-05T16:15:41.775Z,2.37
2017-09-05T16:18:09.335Z,2.63
2017-09-05T16:20:36.864Z,2.20
2017-09-05T16:23:04.437Z,2.90
2017-09-05T16:25:31.960Z,2.63
2017-09-05T16:27:59.499Z,2.20
2017-09-05T16:30:27.054Z,3.03
2017-09-05T16:32:54.597Z,2.20
2017-09-05T16:35:22.160Z,2.20
2017-09-05T16:37:49.689Z,2.27
2017-09-05T16:40:17.236Z,2.13
2017-09-05T16:42:44.763Z,2.40
2017-09-05T16:45:12.318Z,2.50
2017-09-05T16:47:39.839Z,2.43
2017-09-05T16:50:07.387Z,2.57
2017-09-05T16:52:34.906Z,2.90
2017-09-05T16:55:02.455Z,2.47
2017-09-05T16:57:29.989Z,2.30
2017-09-05T16:59:57.534Z,2.50
2017-09-05T17:02:25.059Z,2.53
2017-09-05T17:04:52.603Z,2.80
2017-09-05T17:07:20.127Z,2.10
2017-09-05T17:09:47.674Z,2.47
2017-09-05T17:12:15.207Z,2.13
2017-09-05T17:14:42.764Z,2.53
2017-09-05T17:17:10.290Z,2.77
2017-09-05T17:19:37.822Z,2.20
2017-09-05T17:22:05.379Z,2.50
2017-09-05T17:24:32.904Z,2.63
2017-09-05T17:27:00.452Z,2.80
2017-09-05T17:29:27.984Z,2.10
2017-09-05T17:31:55.560Z,2.13
2017-09-05T17:34:23.103Z,4.07
2017-09-05T17:36:50.658Z,2.90
2017-09-05T17:39:18.193Z,2.57
2017-09-05T17:41:45.789Z,2.10
2017-09-05T17:44:13.330Z,4.13
2017-09-05T17:46:40.904Z,2.00
2017-09-05T17:49:08.451Z,2.30
2017-09-05T17:51:36.010Z,3.90
2017-09-05T17:54:03.570Z,1.97
2017-09-05T17:56:31.158Z,2.47
2017-09-05T17:58:58.739Z,3.80
2017-09-05T18:01:26.306Z,2.27
2017-09-05T18:03:53.845Z,2.57
2017-09-05T18:06:22.170Z,3.30
2017-09-05T18:08:49.727Z,2.20
2017-09-05T18:11:17.286Z,2.37
2017-09-05T18:13:44.831Z,3.73
2017-09-05T18:16:12.365Z,2.37
2017-09-05T18:18:39.934Z,2.67
2017-09-05T18:21:07.491Z,3.50
2017-09-05T18:23:35.044Z,2.13
2017-09-05T18:26:02.577Z,3.70
2017-09-05T18:28:30.152Z,3.70
2017-09-05T18:30:57.698Z,2.47
2017-09-05T18:33:25.274Z,2.77
2017-09-05T18:35:52.818Z,3.27
2017-09-05T18:38:20.381Z,2.07
2017-09-05T18:40:47.925Z,3.57
2017-09-05T18:43:15.479Z,3.47
2017-09-05T18:45:43.006Z,2.40
2017-09-05T18:48:10.567Z,4.03
2017-09-05T18:50:38.178Z,3.03
2017-09-05T18:53:05.743Z,2.40
2017-09-05T18:55:33.277Z,3.10
2017-09-05T18:58:00.840Z,3.63
2017-09-05T19:00:28.871Z,2.57
2017-09-05T19:02:56.477Z,4.83
2017-09-05T19:05:24.027Z,3.70
2017-09-05T19:07:51.592Z,3.00
2017-09-05T19:10:19.134Z,4.33
2017-09-05T19:12:46.699Z,3.50
2017-09-05T19:15:14.260Z,2.60
2017-09-05T19:17:41.793Z,4.80
2017-09-05T19:20:09.362Z,3.00
2017-09-05T19:22:36.900Z,2.87
2017-09-05T19:25:04.453Z,3.47
2017-09-05T19:27:32.008Z,3.10
2017-09-05T19:29:59.563Z,3.30
2017-09-05T19:32:27.095Z,2.67
2017-09-05T19:34:54.770Z,2.57
2017-09-05T19:37:22.295Z,2.20
2017-09-05T19:39:49.855Z,2.47
2017-09-05T19:42:17.393Z,2.60
2017-09-05T19:44:44.938Z,2.47
2017-09-05T19:47:12.475Z,2.30
2017-09-05T19:49:40.038Z,2.20
2017-09-05T19:52:07.567Z,2.50
2017-09-05T19:54:35.119Z,2.20
2017-09-05T19:57:02.686Z,2.40
2017-09-05T19:59:30.240Z,2.57
2017-09-05T20:01:57.772Z,2.40
2017-09-05T20:04:25.339Z,2.57
2017-09-05T20:06:52.864Z,2.07
2017-09-05T20:09:20.402Z,2.60
2017-09-05T20:11:47.955Z,2.50
2017-09-05T20:14:15.482Z,2.43
2017-09-05T20:16:43.032Z,2.30
2017-09-05T20:19:10.565Z,2.27
2017-09-05T20:21:38.118Z,2.70
2017-09-05T20:24:05.644Z,2.50
2017-09-05T20:26:33.194Z,2.20
2017-09-05T20:29:00.720Z,2.20
2017-09-05T20:31:28.266Z,2.30
2017-09-05T20:33:55.796Z,1.97
2017-09-05T20:36:23.351Z,4.03
2017-09-05T20:38:50.879Z,2.57
2017-09-05T20:41:18.422Z,4.00
2017-09-05T20:43:45.956Z,2.83
2017-09-05T20:46:13.517Z,3.00
2017-09-05T20:48:41.042Z,3.93
2017-09-05T20:51:08.587Z,2.73
2017-09-05T20:53:36.121Z,2.80
2017-09-05T20:56:03.934Z,4.10
2017-09-05T20:58:31.608Z,2.87
2017-09-05T21:00:59.139Z,3.20
2017-09-05T21:03:26.690Z,4.00
2017-09-05T21:05:54.220Z,3.00
2017-09-05T21:08:21.779Z,3.10
2017-09-05T21:10:49.298Z,4.20
2017-09-05T21:13:16.866Z,3.10
2017-09-05T21:15:44.423Z,3.00
2017-09-05T21:18:11.975Z,4.20
2017-09-05T21:20:39.507Z,2.97
2017-09-05T21:23:07.063Z,3.07
2017-09-05T21:25:34.596Z,3.97
2017-09-05T21:28:02.155Z,3.33
2017-09-05T21:30:29.691Z,3.73
2017-09-05T21:32:57.247Z,4.00
2017-09-05T21:35:24.774Z,2.67
2017-09-05T21:37:52.328Z,4.27
2017-09-05T21:40:19.856Z,4.93
2017-09-05T21:42:47.397Z,3.60
2017-09-05T21:45:14.924Z,4.40
2017-09-05T21:47:42.644Z,5.33
2017-09-05T21:50:10.203Z,3.50
2017-09-05T21:52:37.754Z,4.80
2017-09-05T21:55:05.275Z,5.20
2017-09-05T21:57:32.815Z,3.63
2017-09-05T22:00:00.366Z,4.43
2017-09-05T22:02:27.887Z,4.33
2017-09-05T22:04:55.430Z,3.80
2017-09-05T22:07:22.955Z,4.87
2017-09-05T22:09:50.502Z,4.60
2017-09-05T22:12:18.022Z,4.20
2017-09-05T22:14:51.312Z,4.80
2017-09-05T22:17:18.873Z,3.87
2017-09-05T22:19:52.057Z,3.57
2017-09-05T22:22:19.586Z,4.30
2017-09-05T22:24:52.729Z,3.40
2017-09-05T22:27:25.982Z,4.60
2017-09-05T22:29:53.527Z,4.10
2017-09-05T22:51:35.199Z,3.97
2017-09-05T22:54:02.723Z,4.80
2017-09-05T22:56:30.278Z,4.03
2017-09-05T22:58:57.806Z,4.80
2017-09-05T23:01:25.358Z,4.40
2017-09-05T23:03:52.913Z,4.80
2017-09-05T23:06:20.477Z,4.90
2017-09-05T23:08:48.002Z,5.30
2017-09-05T23:11:15.546Z,5.20
2017-09-05T23:13:43.087Z,5.40
2017-09-05T23:16:10.636Z,5.50
2017-09-05T23:18:38.162Z,4.73
2017-09-05T23:21:05.714Z,6.17
2017-09-05T23:23:33.234Z,4.73
2017-09-05T23:26:00.781Z,5.63
2017-09-05T23:28:28.306Z,5.83
2017-09-05T23:30:55.850Z,5.90
2017-09-05T23:33:23.374Z,4.77
2017-09-05T23:35:50.931Z,4.80
2017-09-05T23:38:18.472Z,5.90
2017-09-05T23:40:46.030Z,5.37
2017-09-05T23:43:13.550Z,4.80
2017-09-05T23:45:41.074Z,5.53
2017-09-05T23:48:08.621Z,5.23
2017-09-05T23:50:36.139Z,5.43
2017-09-05T23:53:03.687Z,5.23
2017-09-05T23:55:31.202Z,4.50
2017-09-05T23:57:58.750Z,5.43
